Morgan, Texas
Current Conditions -  °F | °C
As of 2:35 PM on Sunday 21 Dec 2014 (Local Time) from KCPT Reporting Station
Overcast Overcast  
Wind Chill: 11°   Ceiling: 1400
Heat Index: 11°   Visibility: 10mi
Dew Point:   Wind: 10mph
Humidity: 88%   Direction: 180°S
Pressure: 29.9"   Gusts: NA
Location:  32.02°N, 97.61°W
Report Text: KCPT 212035Z AUTO 18009KT 10SM OVC014 11/09 A2990 RMK AO2
Loading
Personal Weather Stations






























Interactive Weather Map New forecast layout! Learn more

10-Day Weather Forecast

Advertisements
Track Severe Weather on mobile